sensor_id;sensor_type;location;lat;lon;timestamp;pressure;altitude;pressure_sealevel;temperature;humidity
4814;BME280;15375;48.540;9.268;2023-03-20T00:01:48;97569.94;;;9.05;100.00
4814;BME280;15375;48.540;9.268;2023-03-20T00:04:14;97532.84;;;8.81;100.00
4814;BME280;15375;48.540;9.268;2023-03-20T00:06:39;97535.50;;;8.84;100.00
4814;BME280;15375;48.540;9.268;2023-03-20T00:09:04;97566.88;;;8.99;100.00
4814;BME280;15375;48.540;9.268;2023-03-20T00:11:35;97540.94;;;8.88;100.00
4814;BME280;15375;48.540;9.268;2023-03-20T00:14:07;97570.28;;;9.11;100.00
4814;BME280;15375;48.540;9.268;2023-03-20T00:16:35;97557.19;;;8.98;100.00
4814;BME280;15375;48.540;9.268;2023-03-20T00:19:01;97574.53;;;9.15;100.00
4814;BME280;15375;48.540;9.268;2023-03-20T00:21:27;97569.44;;;9.17;100.00
4814;BME280;15375;48.540;9.268;2023-03-20T00:23:53;97576.44;;;9.18;100.00
4814;BME280;15375;48.540;9.268;2023-03-20T00:26:19;97557.13;;;9.02;100.00
4814;BME280;15375;48.540;9.268;2023-03-20T00:28:48;97567.22;;;9.05;100.00
4814;BME280;15375;48.540;9.268;2023-03-20T00:31:16;97574.16;;;9.13;100.00
4814;BME280;15375;48.540;9.268;2023-03-20T00:33:43;97581.13;;;9.14;100.00
4814;BME280;15375;48.540;9.268;2023-03-20T00:36:09;97543.25;;;8.89;100.00
4814;BME280;15375;48.540;9.268;2023-03-20T00:38:35;97572.63;;;9.09;100.00
4814;BME280;15375;48.540;9.268;2023-03-20T00:41:00;97543.22;;;8.93;100.00
4814;BME280;15375;48.540;9.268;2023-03-20T00:43:26;97547.47;;;8.94;100.00
4814;BME280;15375;48.540;9.268;2023-03-20T00:45:51;97542.44;;;8.92;100.00
4814;BME280;15375;48.540;9.268;2023-03-20T00:48:17;97543.22;;;8.93;100.00
4814;BME280;15375;48.540;9.268;2023-03-20T00:50:43;97578.38;;;9.18;100.00
4814;BME280;15375;48.540;9.268;2023-03-20T00:53:10;97530.84;;;8.85;100.00
4814;BME280;15375;48.540;9.268;2023-03-20T00:55:36;97553.69;;;8.98;100.00
4814;BME280;15375;48.540;9.268;2023-03-20T00:58:03;97541.31;;;8.90;100.00
4814;BME280;15375;48.540;9.268;2023-03-20T01:00:40;97554.47;;;8.98;100.00
4814;BME280;15375;48.540;9.268;2023-03-20T01:05:39;97584.25;;;9.16;100.00
4814;BME280;15375;48.540;9.268;2023-03-20T01:08:11;97578.78;;;9.16;100.00
4814;BME280;15375;48.540;9.268;2023-03-20T01:10:36;97555.59;;;9.01;100.00
4814;BME280;15375;48.540;9.268;2023-03-20T01:13:02;97581.53;;;9.16;100.00
4814;BME280;15375;48.540;9.268;2023-03-20T01:15:31;97561.03;;;9.01;100.00
4814;BME280;15375;48.540;9.268;2023-03-20T01:17:57;97575.69;;;9.14;100.00
4814;BME280;15375;48.540;9.268;2023-03-20T01:20:26;97549.81;;;8.95;100.00
4814;BME280;15375;48.540;9.268;2023-03-20T01:22:52;97546.38;;;8.88;100.00
4814;BME280;15375;48.540;9.268;2023-03-20T01:25:19;97578.09;;;9.05;100.00
4814;BME280;15375;48.540;9.268;2023-03-20T01:27:50;97569.94;;;9.05;100.00
4814;BME280;15375;48.540;9.268;2023-03-20T01:30:20;97592.00;;;9.14;100.00
4814;BME280;15375;48.540;9.268;2023-03-20T01:32:46;97564.22;;;8.92;100.00
4814;BME280;15375;48.540;9.268;2023-03-20T01:35:14;97580.03;;;9.05;100.00
4814;BME280;15375;48.540;9.268;2023-03-20T01:37:40;97565.34;;;8.98;100.00
4814;BME280;15375;48.540;9.268;2023-03-20T01:42:56;97573.88;;;9.01;100.00
4814;BME280;15375;48.540;9.268;2023-03-20T01:45:27;97572.38;;;8.92;100.00
4814;BME280;15375;48.540;9.268;2023-03-20T01:47:54;97584.34;;;9.02;100.00
4814;BME280;15375;48.540;9.268;2023-03-20T01:50:31;97594.38;;;9.12;100.00
4814;BME280;15375;48.540;9.268;2023-03-20T01:53:05;97586.25;;;9.09;100.00
4814;BME280;15375;48.540;9.268;2023-03-20T01:55:31;97589.72;;;9.09;100.00
4814;BME280;15375;48.540;9.268;2023-03-20T01:58:00;97559.91;;;8.95;100.00
4814;BME280;15375;48.540;9.268;2023-03-20T02:00:27;97571.53;;;8.99;100.00
4814;BME280;15375;48.540;9.268;2023-03-20T02:02:52;97556.09;;;8.85;100.00
4814;BME280;15375;48.540;9.268;2023-03-20T02:05:20;97524.03;;;8.63;100.00
4814;BME280;15375;48.540;9.268;2023-03-20T02:07:53;97588.97;;;9.05;100.00
4814;BME280;15375;48.540;9.268;2023-03-20T02:10:21;97574.28;;;8.95;100.00
4814;BME280;15375;48.540;9.268;2023-03-20T02:12:47;97576.94;;;9.03;100.00
4814;BME280;15375;48.540;9.268;2023-03-20T02:15:13;97574.25;;;8.99;100.00
4814;BME280;15375;48.540;9.268;2023-03-20T02:17:40;97595.94;;;9.10;100.00
4814;BME280;15375;48.540;9.268;2023-03-20T02:42:53;97613.13;;;8.99;100.00
4814;BME280;15375;48.540;9.268;2023-03-20T02:45:40;97590.34;;;8.79;100.00
4814;BME280;15375;48.540;9.268;2023-03-20T02:56:33;97600.13;;;8.66;100.00
4814;BME280;15375;48.540;9.268;2023-03-20T02:59:28;97603.25;;;8.65;100.00
4814;BME280;15375;48.540;9.268;2023-03-20T03:02:17;97607.84;;;8.75;100.00
4814;BME280;15375;48.540;9.268;2023-03-20T03:04:51;97602.41;;;8.75;100.00
4814;BME280;15375;48.540;9.268;2023-03-20T03:07:21;97608.16;;;8.84;100.00
4814;BME280;15375;48.540;9.268;2023-03-20T03:12:20;97610.94;;;8.77;100.00
4814;BME280;15375;48.540;9.268;2023-03-20T03:14:50;97616.00;;;8.78;100.00
4814;BME280;15375;48.540;9.268;2023-03-20T03:17:19;97590.44;;;8.62;100.00
4814;BME280;15375;48.540;9.268;2023-03-20T03:19:48;97614.03;;;8.79;100.00
4814;BME280;15375;48.540;9.268;2023-03-20T03:22:15;97593.16;;;8.62;100.00
4814;BME280;15375;48.540;9.268;2023-03-20T03:24:46;97611.72;;;8.74;100.00
4814;BME280;15375;48.540;9.268;2023-03-20T03:27:56;97611.72;;;8.74;100.00
4814;BME280;15375;48.540;9.268;2023-03-20T03:30:17;97623.78;;;8.73;100.00
4814;BME280;15375;48.540;9.268;2023-03-20T03:32:50;97615.28;;;8.67;100.00
4814;BME280;15375;48.540;9.268;2023-03-20T03:35:21;97617.22;;;8.67;100.00
4814;BME280;15375;48.540;9.268;2023-03-20T03:38:07;97630.34;;;8.79;100.00
4814;BME280;15375;48.540;9.268;2023-03-20T03:43:26;97613.31;;;8.71;100.00
4814;BME280;15375;48.540;9.268;2023-03-20T03:45:59;97627.63;;;8.79;100.00
4814;BME280;15375;48.540;9.268;2023-03-20T03:48:39;97626.47;;;8.80;100.00
4814;BME280;15375;48.540;9.268;2023-03-20T03:51:13;97626.16;;;8.67;100.00
4814;BME280;15375;48.540;9.268;2023-03-20T03:53:44;97640.84;;;8.80;100.00
4814;BME280;15375;48.540;9.268;2023-03-20T03:56:15;97628.03;;;8.74;100.00
4814;BME280;15375;48.540;9.268;2023-03-20T03:58:51;97604.06;;;8.58;100.00
4814;BME280;15375;48.540;9.268;2023-03-20T04:01:18;97609.47;;;8.62;100.00
4814;BME280;15375;48.540;9.268;2023-03-20T04:03:48;97654.41;;;8.87;100.00
4814;BME280;15375;48.540;9.268;2023-03-20T04:06:16;97641.56;;;8.88;100.00
4814;BME280;15375;48.540;9.268;2023-03-20T04:08:42;97647.81;;;8.85;100.00
4814;BME280;15375;48.540;9.268;2023-03-20T04:11:16;97648.97;;;8.84;100.00
4814;BME280;15375;48.540;9.268;2023-03-20T04:13:42;97640.13;;;8.73;100.00
4814;BME280;15375;48.540;9.268;2023-03-20T04:16:11;97648.59;;;8.82;100.00
4814;BME280;15375;48.540;9.268;2023-03-20T04:18:38;97648.22;;;8.80;100.00
4814;BME280;15375;48.540;9.268;2023-03-20T04:21:04;97636.63;;;8.72;100.00
4814;BME280;15375;48.540;9.268;2023-03-20T04:23:30;97631.59;;;8.64;100.00
4814;BME280;15375;48.540;9.268;2023-03-20T04:25:56;97620.78;;;8.57;100.00
4814;BME280;15375;48.540;9.268;2023-03-20T04:28:21;97632.75;;;8.66;100.00
4814;BME280;15375;48.540;9.268;2023-03-20T04:30:54;97630.44;;;8.65;100.00
4814;BME280;15375;48.540;9.268;2023-03-20T04:33:19;97631.59;;;8.67;100.00
4814;BME280;15375;48.540;9.268;2023-03-20T04:35:45;97635.47;;;8.70;100.00
4814;BME280;15375;48.540;9.268;2023-03-20T04:38:10;97614.19;;;8.54;100.00
4814;BME280;15375;48.540;9.268;2023-03-20T04:40:36;97654.44;;;8.77;100.00
4814;BME280;15375;48.540;9.268;2023-03-20T04:43:01;97611.09;;;8.52;100.00
4814;BME280;15375;48.540;9.268;2023-03-20T04:45:26;97627.72;;;8.61;100.00
4814;BME280;15375;48.540;9.268;2023-03-20T04:47:52;97647.06;;;8.77;100.00
4814;BME280;15375;48.540;9.268;2023-03-20T04:50:17;97625.00;;;8.65;100.00
4814;BME280;15375;48.540;9.268;2023-03-20T04:52:43;97615.63;;;8.73;100.00
4814;BME280;15375;48.540;9.268;2023-03-20T04:55:08;97587.78;;;8.55;100.00
4814;BME280;15375;48.540;9.268;2023-03-20T04:57:33;97605.22;;;8.61;100.00
4814;BME280;15375;48.540;9.268;2023-03-20T04:59:59;97602.88;;;8.59;100.00
4814;BME280;15375;48.540;9.268;2023-03-20T05:02:24;97616.44;;;8.70;100.00
4814;BME280;15375;48.540;9.268;2023-03-20T05:04:50;97607.13;;;8.67;100.00
4814;BME280;15375;48.540;9.268;2023-03-20T05:07:16;97641.16;;;8.93;100.00
4814;BME280;15375;48.540;9.268;2023-03-20T05:09:42;97617.56;;;8.76;100.00
4814;BME280;15375;48.540;9.268;2023-03-20T05:12:08;97633.47;;;8.81;100.00
4814;BME280;15375;48.540;9.268;2023-03-20T05:14:33;97626.53;;;8.69;100.00
4814;BME280;15375;48.540;9.268;2023-03-20T05:16:58;97625.75;;;8.69;100.00
4814;BME280;15375;48.540;9.268;2023-03-20T05:19:24;97611.84;;;8.56;100.00
4814;BME280;15375;48.540;9.268;2023-03-20T05:21:49;97643.94;;;8.79;100.00
4814;BME280;15375;48.540;9.268;2023-03-20T05:24:15;97647.47;;;8.76;100.00
4814;BME280;15375;48.540;9.268;2023-03-20T05:26:40;97655.19;;;8.84;100.00
4814;BME280;15375;48.540;9.268;2023-03-20T05:29:06;97649.78;;;8.77;100.00
4814;BME280;15375;48.540;9.268;2023-03-20T05:31:31;97677.69;;;8.92;100.00
4814;BME280;15375;48.540;9.268;2023-03-20T05:33:56;97652.88;;;8.79;100.00
4814;BME280;15375;48.540;9.268;2023-03-20T05:36:23;97653.66;;;8.80;100.00
4814;BME280;15375;48.540;9.268;2023-03-20T05:38:49;97670.34;;;8.85;100.00
4814;BME280;15375;48.540;9.268;2023-03-20T05:41:14;97634.72;;;8.66;100.00
4814;BME280;15375;48.540;9.268;2023-03-20T05:43:39;97654.06;;;8.78;100.00
4814;BME280;15375;48.540;9.268;2023-03-20T05:46:05;97661.41;;;8.81;100.00
4814;BME280;15375;48.540;9.268;2023-03-20T05:48:30;97657.53;;;8.79;100.00
4814;BME280;15375;48.540;9.268;2023-03-20T05:50:56;97661.00;;;8.86;100.00
4814;BME280;15375;48.540;9.268;2023-03-20T05:53:21;97676.47;;;9.00;100.00
4814;BME280;15375;48.540;9.268;2023-03-20T05:55:47;97662.91;;;8.93;100.00
4814;BME280;15375;48.540;9.268;2023-03-20T05:58:12;97655.91;;;8.92;100.00
4814;BME280;15375;48.540;9.268;2023-03-20T06:00:38;97661.28;;;9.03;100.00
4814;BME280;15375;48.540;9.268;2023-03-20T06:03:04;97680.69;;;9.08;100.00
4814;BME280;15375;48.540;9.268;2023-03-20T06:05:31;97667.88;;;9.09;100.00
4814;BME280;15375;48.540;9.268;2023-03-20T06:07:57;97661.25;;;9.10;100.00
4814;BME280;15375;48.540;9.268;2023-03-20T06:10:22;97652.75;;;9.01;100.00
4814;BME280;15375;48.540;9.268;2023-03-20T06:12:48;97688.38;;;9.20;100.00
4814;BME280;15375;48.540;9.268;2023-03-20T06:15:14;97667.50;;;9.03;100.00
4814;BME280;15375;48.540;9.268;2023-03-20T06:17:39;97666.31;;;9.11;100.00
4814;BME280;15375;48.540;9.268;2023-03-20T06:20:05;97682.16;;;9.23;100.00
4814;BME280;15375;48.540;9.268;2023-03-20T06:22:31;97703.47;;;9.32;100.00
4814;BME280;15375;48.540;9.268;2023-03-20T06:24:57;97688.34;;;9.27;100.00
4814;BME280;15375;48.540;9.268;2023-03-20T06:27:22;97694.56;;;9.28;100.00
4814;BME280;15375;48.540;9.268;2023-03-20T06:29:47;97689.53;;;9.19;100.00
4814;BME280;15375;48.540;9.268;2023-03-20T06:32:13;97699.25;;;9.24;100.00
4814;BME280;15375;48.540;9.268;2023-03-20T06:34:39;97704.28;;;9.29;100.00
4814;BME280;15375;48.540;9.268;2023-03-20T06:37:05;97697.28;;;9.24;100.00
4814;BME280;15375;48.540;9.268;2023-03-20T06:39:30;97697.69;;;9.26;100.00
4814;BME280;15375;48.540;9.268;2023-03-20T06:41:56;97718.97;;;9.38;100.00
4814;BME280;15375;48.540;9.268;2023-03-20T06:44:21;97686.09;;;9.15;100.00
4814;BME280;15375;48.540;9.268;2023-03-20T06:46:47;97693.09;;;9.16;100.00
4814;BME280;15375;48.540;9.268;2023-03-20T06:49:12;97683.34;;;9.19;100.00
4814;BME280;15375;48.540;9.268;2023-03-20T06:51:37;97685.25;;;9.25;100.00
4814;BME280;15375;48.540;9.268;2023-03-20T06:54:03;97682.81;;;9.38;100.00
4814;BME280;15375;48.540;9.268;2023-03-20T06:56:29;97694.72;;;9.54;100.00
4814;BME280;15375;48.540;9.268;2023-03-20T06:58:55;97687.31;;;9.58;100.00
4814;BME280;15375;48.540;9.268;2023-03-20T07:01:20;97669.41;;;9.61;100.00
4814;BME280;15375;48.540;9.268;2023-03-20T07:03:46;97688.97;;;9.90;100.00
4814;BME280;15375;48.540;9.268;2023-03-20T07:06:11;97692.09;;;9.88;100.00
4814;BME280;15375;48.540;9.268;2023-03-20T07:08:38;97693.28;;;9.87;100.00
4814;BME280;15375;48.540;9.268;2023-03-20T07:11:04;97693.31;;;9.84;100.00
4814;BME280;15375;48.540;9.268;2023-03-20T07:13:30;97685.09;;;9.87;100.00
4814;BME280;15375;48.540;9.268;2023-03-20T07:15:56;97702.91;;;9.99;100.00
4814;BME280;15375;48.540;9.268;2023-03-20T07:18:26;97692.44;;;9.94;100.00
4814;BME280;15375;48.540;9.268;2023-03-20T07:20:52;97689.84;;;10.20;100.00
4814;BME280;15375;48.540;9.268;2023-03-20T07:23:18;97699.50;;;10.29;97.98
4814;BME280;15375;48.540;9.268;2023-03-20T07:25:43;97702.06;;;10.43;98.80
4814;BME280;15375;48.540;9.268;2023-03-20T07:28:10;97688.34;;;10.50;95.47
4814;BME280;15375;48.540;9.268;2023-03-20T07:30:35;97701.03;;;10.67;94.42
4814;BME280;15375;48.540;9.268;2023-03-20T07:33:01;97717.19;;;10.81;93.44
4814;BME280;15375;48.540;9.268;2023-03-20T07:35:26;97710.41;;;10.62;93.91
4814;BME280;15375;48.540;9.268;2023-03-20T07:37:51;97708.53;;;10.56;94.00
4814;BME280;15375;48.540;9.268;2023-03-20T07:40:17;97721.16;;;10.76;94.64
4814;BME280;15375;48.540;9.268;2023-03-20T07:42:43;97714.56;;;10.74;91.85
4814;BME280;15375;48.540;9.268;2023-03-20T07:45:10;97731.97;;;10.83;91.35
4814;BME280;15375;48.540;9.268;2023-03-20T07:47:36;97718.44;;;10.76;93.20
4814;BME280;15375;48.540;9.268;2023-03-20T07:50:01;97715.22;;;10.51;91.59
4814;BME280;15375;48.540;9.268;2023-03-20T07:52:27;97713.66;;;10.50;91.41
4814;BME280;15375;48.540;9.268;2023-03-20T07:54:52;97710.84;;;10.57;92.78
4814;BME280;15375;48.540;9.268;2023-03-20T07:57:18;97713.19;;;10.59;90.82
4814;BME280;15375;48.540;9.268;2023-03-20T07:59:43;97717.16;;;10.54;90.44
4814;BME280;15375;48.540;9.268;2023-03-20T08:02:13;97725.75;;;10.83;90.11
4814;BME280;15375;48.540;9.268;2023-03-20T08:04:39;97722.88;;;10.94;89.40
4814;BME280;15375;48.540;9.268;2023-03-20T08:07:05;97711.63;;;10.92;88.53
4814;BME280;15375;48.540;9.268;2023-03-20T08:09:30;97725.47;;;11.04;87.46
4814;BME280;15375;48.540;9.268;2023-03-20T08:11:56;97693.88;;;10.76;89.05
4814;BME280;15375;48.540;9.268;2023-03-20T08:14:21;97718.53;;;11.00;89.41
4814;BME280;15375;48.540;9.268;2023-03-20T08:16:46;97674.31;;;10.81;88.45
4814;BME280;15375;48.540;9.268;2023-03-20T08:19:12;97705.22;;;11.02;87.84
4814;BME280;15375;48.540;9.268;2023-03-20T08:21:37;97677.53;;;11.03;88.18
4814;BME280;15375;48.540;9.268;2023-03-20T08:24:03;97723.84;;;11.37;87.13
4814;BME280;15375;48.540;9.268;2023-03-20T08:26:28;97722.44;;;11.52;85.15
4814;BME280;15375;48.540;9.268;2023-03-20T08:28:54;97699.50;;;11.46;85.53
4814;BME280;15375;48.540;9.268;2023-03-20T08:31:19;97726.91;;;11.66;84.58
4814;BME280;15375;48.540;9.268;2023-03-20T08:33:45;97682.84;;;11.14;82.78
4814;BME280;15375;48.540;9.268;2023-03-20T08:36:11;97717.72;;;11.29;84.59
4814;BME280;15375;48.540;9.268;2023-03-20T08:38:36;97697.84;;;11.25;85.01
4814;BME280;15375;48.540;9.268;2023-03-20T08:41:02;97727.63;;;11.43;84.91
4814;BME280;15375;48.540;9.268;2023-03-20T08:43:28;97720.69;;;11.38;84.12
4814;BME280;15375;48.540;9.268;2023-03-20T08:45:53;97703.50;;;11.15;83.10
4814;BME280;15375;48.540;9.268;2023-03-20T08:48:20;97716.97;;;11.25;85.32
4814;BME280;15375;48.540;9.268;2023-03-20T08:50:45;97679.09;;;10.74;85.16
4814;BME280;15375;48.540;9.268;2023-03-20T08:53:11;97702.69;;;10.87;86.40
4814;BME280;15375;48.540;9.268;2023-03-20T08:55:36;97696.41;;;10.90;85.74
4814;BME280;15375;48.540;9.268;2023-03-20T08:58:02;97704.63;;;11.17;84.21
4814;BME280;15375;48.540;9.268;2023-03-20T09:00:28;97714.09;;;11.36;84.88
4814;BME280;15375;48.540;9.268;2023-03-20T09:02:53;97694.28;;;11.32;83.22
4814;BME280;15375;48.540;9.268;2023-03-20T09:05:19;97702.56;;;11.25;82.38
4814;BME280;15375;48.540;9.268;2023-03-20T09:07:44;97699.31;;;11.07;82.01
4814;BME280;15375;48.540;9.268;2023-03-20T09:10:10;97724.91;;;11.16;82.96
4814;BME280;15375;48.540;9.268;2023-03-20T09:12:36;97719.34;;;11.23;81.52
4814;BME280;15375;48.540;9.268;2023-03-20T09:15:02;97715.69;;;11.33;82.60
4814;BME280;15375;48.540;9.268;2023-03-20T09:17:28;97717.69;;;11.56;80.76
4814;BME280;15375;48.540;9.268;2023-03-20T09:19:55;97705.19;;;11.82;81.50
4814;BME280;15375;48.540;9.268;2023-03-20T09:22:20;97684.03;;;11.86;80.19
4814;BME280;15375;48.540;9.268;2023-03-20T09:24:46;97704.75;;;12.06;78.02
4814;BME280;15375;48.540;9.268;2023-03-20T09:27:11;97699.00;;;12.01;77.37
4814;BME280;15375;48.540;9.268;2023-03-20T09:29:41;97724.31;;;12.48;77.15
4814;BME280;15375;48.540;9.268;2023-03-20T09:32:10;97705.34;;;12.76;72.47
4814;BME280;15375;48.540;9.268;2023-03-20T09:34:36;97714.19;;;12.84;71.10
4814;BME280;15375;48.540;9.268;2023-03-20T09:37:01;97726.25;;;12.87;69.87
4814;BME280;15375;48.540;9.268;2023-03-20T09:39:27;97719.72;;;13.00;70.71
4814;BME280;15375;48.540;9.268;2023-03-20T09:41:53;97721.22;;;12.85;70.38
4814;BME280;15375;48.540;9.268;2023-03-20T09:47:02;97735.63;;;13.09;71.41
4814;BME280;15375;48.540;9.268;2023-03-20T09:52:12;97713.44;;;13.39;67.68
4814;BME280;15375;48.540;9.268;2023-03-20T09:54:43;97722.06;;;13.37;65.75
4814;BME280;15375;48.540;9.268;2023-03-20T09:57:33;97717.97;;;13.46;65.86
4814;BME280;15375;48.540;9.268;2023-03-20T10:00:03;97709.34;;;13.63;65.49
4814;BME280;15375;48.540;9.268;2023-03-20T10:02:42;97701.00;;;13.83;63.86
4814;BME280;15375;48.540;9.268;2023-03-20T10:05:56;97712.16;;;13.92;61.62
4814;BME280;15375;48.540;9.268;2023-03-20T10:08:31;97717.13;;;13.81;64.53
4814;BME280;15375;48.540;9.268;2023-03-20T10:11:14;97718.31;;;13.96;63.22
4814;BME280;15375;48.540;9.268;2023-03-20T10:16:42;97728.34;;;13.70;63.25
4814;BME280;15375;48.540;9.268;2023-03-20T10:19:20;97727.41;;;13.61;nan
4814;BME280;15375;48.540;9.268;2023-03-20T10:21:49;97736.03;;;13.07;64.52
4814;BME280;15375;48.540;9.268;2023-03-20T10:24:27;97724.38;;;13.03;64.02
4814;BME280;15375;48.540;9.268;2023-03-20T10:26:54;97741.97;;;13.22;65.72
4814;BME280;15375;48.540;9.268;2023-03-20T10:32:13;97736.94;;;13.20;67.67
4814;BME280;15375;48.540;9.268;2023-03-20T10:34:59;97742.41;;;13.20;67.82
4814;BME280;15375;48.540;9.268;2023-03-20T10:40:32;97747.13;;;12.61;72.88
4814;BME280;15375;48.540;9.268;2023-03-20T10:43:03;97740.41;;;12.46;72.00
4814;BME280;15375;48.540;9.268;2023-03-20T10:45:37;97759.25;;;12.60;73.60
4814;BME280;15375;48.540;9.268;2023-03-20T10:48:20;97752.88;;;12.47;74.99
4814;BME280;15375;48.540;9.268;2023-03-20T10:50:54;97748.56;;;12.26;75.34
4814;BME280;15375;48.540;9.268;2023-03-20T10:53:29;97735.63;;;12.07;75.62
4814;BME280;15375;48.540;9.268;2023-03-20T10:55:59;97752.72;;;12.11;73.82
4814;BME280;15375;48.540;9.268;2023-03-20T10:58:27;97755.63;;;12.24;74.05
4814;BME280;15375;48.540;9.268;2023-03-20T11:00:55;97746.38;;;12.18;76.04
4814;BME280;15375;48.540;9.268;2023-03-20T11:03:23;97729.88;;;12.21;75.01
4814;BME280;15375;48.540;9.268;2023-03-20T11:06:02;97737.41;;;12.37;73.24
4814;BME280;15375;48.540;9.268;2023-03-20T11:08:36;97722.47;;;12.41;72.33
4814;BME280;15375;48.540;9.268;2023-03-20T11:11:03;97734.44;;;12.51;69.98
4814;BME280;15375;48.540;9.268;2023-03-20T11:13:35;97722.56;;;12.38;68.56
4814;BME280;15375;48.540;9.268;2023-03-20T11:16:13;97721.88;;;12.53;68.21
4814;BME280;15375;48.540;9.268;2023-03-20T11:18:40;97710.84;;;12.37;67.70
4814;BME280;15375;48.540;9.268;2023-03-20T11:21:20;97702.19;;;12.19;68.92
4814;BME280;15375;48.540;9.268;2023-03-20T11:23:46;97706.44;;;12.63;66.75
4814;BME280;15375;48.540;9.268;2023-03-20T11:26:38;97702.22;;;13.66;66.77
4814;BME280;15375;48.540;9.268;2023-03-20T11:29:07;97708.00;;;14.16;62.00
4814;BME280;15375;48.540;9.268;2023-03-20T11:31:37;97692.13;;;14.40;61.98
4814;BME280;15375;48.540;9.268;2023-03-20T11:36:44;97700.13;;;14.88;56.78
4814;BME280;15375;48.540;9.268;2023-03-20T11:39:21;97685.13;;;14.93;57.24
4814;BME280;15375;48.540;9.268;2023-03-20T11:41:50;97707.59;;;14.75;56.22
4814;BME280;15375;48.540;9.268;2023-03-20T11:47:01;97685.53;;;14.37;56.39
4814;BME280;15375;48.540;9.268;2023-03-20T11:49:28;97708.84;;;14.29;57.38
4814;BME280;15375;48.540;9.268;2023-03-20T11:52:16;97707.16;;;13.55;58.04
4814;BME280;15375;48.540;9.268;2023-03-20T11:54:50;97707.88;;;13.59;58.89
4814;BME280;15375;48.540;9.268;2023-03-20T11:57:39;97712.44;;;14.10;60.40
4814;BME280;15375;48.540;9.268;2023-03-20T12:00:23;97704.97;;;14.27;62.85
4814;BME280;15375;48.540;9.268;2023-03-20T12:02:49;97693.63;;;14.12;60.62
4814;BME280;15375;48.540;9.268;2023-03-20T12:05:34;97695.63;;;14.24;58.95
4814;BME280;15375;48.540;9.268;2023-03-20T12:08:11;97703.66;;;14.47;57.64
4814;BME280;15375;48.540;9.268;2023-03-20T12:10:54;97700.41;;;14.52;56.96
4814;BME280;15375;48.540;9.268;2023-03-20T12:13:34;97691.28;;;14.55;56.47
4814;BME280;15375;48.540;9.268;2023-03-20T12:16:05;97682.00;;;14.37;56.88
4814;BME280;15375;48.540;9.268;2023-03-20T12:18:38;97689.38;;;14.81;55.72
4814;BME280;15375;48.540;9.268;2023-03-20T12:27:06;97684.03;;;15.15;54.61
4814;BME280;15375;48.540;9.268;2023-03-20T12:32:19;97670.25;;;14.65;54.54
4814;BME280;15375;48.540;9.268;2023-03-20T12:34:51;97667.47;;;14.52;55.39
4814;BME280;15375;48.540;9.268;2023-03-20T12:37:19;97679.19;;;14.53;58.04
4814;BME280;15375;48.540;9.268;2023-03-20T12:39:51;97670.09;;;14.56;58.61
4814;BME280;15375;48.540;9.268;2023-03-20T12:45:14;97660.53;;;14.03;60.73
4814;BME280;15375;48.540;9.268;2023-03-20T13:01:27;97674.25;;;14.03;61.05
4814;BME280;15375;48.540;9.268;2023-03-20T13:09:39;97653.56;;;14.15;59.72
4814;BME280;15375;48.540;9.268;2023-03-20T13:12:13;97659.09;;;13.98;60.36
4814;BME280;15375;48.540;9.268;2023-03-20T13:20:34;97640.38;;;14.10;59.88
4814;BME280;15375;48.540;9.268;2023-03-20T13:28:40;97637.00;;;13.89;62.88
4814;BME280;15375;48.540;9.268;2023-03-20T13:33:57;97643.13;;;13.49;63.31
4814;BME280;15375;48.540;9.268;2023-03-20T13:39:13;97642.19;;;13.71;64.46
4814;BME280;15375;48.540;9.268;2023-03-20T13:41:40;97623.19;;;13.64;62.47
4814;BME280;15375;48.540;9.268;2023-03-20T13:44:09;97620.91;;;13.75;61.33
4814;BME280;15375;48.540;9.268;2023-03-20T13:46:42;97627.28;;;14.01;61.98
4814;BME280;15375;48.540;9.268;2023-03-20T13:51:58;97618.09;;;13.63;60.36
4814;BME280;15375;48.540;9.268;2023-03-20T14:05:13;97610.78;;;14.17;58.98
4814;BME280;15375;48.540;9.268;2023-03-20T14:07:45;97603.63;;;14.07;58.27
4814;BME280;15375;48.540;9.268;2023-03-20T14:12:54;97591.19;;;14.73;59.63
4814;BME280;15375;48.540;9.268;2023-03-20T14:15:21;97602.34;;;14.65;59.07
4814;BME280;15375;48.540;9.268;2023-03-20T14:17:48;97601.06;;;14.70;59.43
4814;BME280;15375;48.540;9.268;2023-03-20T14:20:36;97594.63;;;14.48;56.68
4814;BME280;15375;48.540;9.268;2023-03-20T14:23:03;97592.44;;;14.43;57.95
4814;BME280;15375;48.540;9.268;2023-03-20T14:25:34;97596.88;;;14.24;58.00
4814;BME280;15375;48.540;9.268;2023-03-20T14:30:43;97608.78;;;14.18;60.13
4814;BME280;15375;48.540;9.268;2023-03-20T14:35:50;97597.81;;;14.18;58.98
4814;BME280;15375;48.540;9.268;2023-03-20T14:38:29;97590.56;;;14.11;59.92
4814;BME280;15375;48.540;9.268;2023-03-20T14:48:55;97597.06;;;14.58;57.02
4814;BME280;15375;48.540;9.268;2023-03-20T14:51:40;97599.25;;;14.51;57.13
4814;BME280;15375;48.540;9.268;2023-03-20T14:56:49;97587.13;;;13.50;55.99
4814;BME280;15375;48.540;9.268;2023-03-20T14:59:15;97599.84;;;13.72;56.29
4814;BME280;15375;48.540;9.268;2023-03-20T15:01:45;97596.50;;;13.81;56.20
4814;BME280;15375;48.540;9.268;2023-03-20T15:06:44;97583.13;;;13.83;57.83
4814;BME280;15375;48.540;9.268;2023-03-20T15:09:12;97576.56;;;13.93;56.59
4814;BME280;15375;48.540;9.268;2023-03-20T15:11:39;97595.81;;;14.05;55.67
4814;BME280;15375;48.540;9.268;2023-03-20T15:14:07;97590.53;;;13.98;55.68
4814;BME280;15375;48.540;9.268;2023-03-20T15:16:35;97594.28;;;14.04;57.06
4814;BME280;15375;48.540;9.268;2023-03-20T15:19:05;97599.69;;;14.21;57.60
4814;BME280;15375;48.540;9.268;2023-03-20T15:21:40;97592.50;;;13.98;57.17
4814;BME280;15375;48.540;9.268;2023-03-20T15:24:06;97599.28;;;13.93;56.39
4814;BME280;15375;48.540;9.268;2023-03-20T15:26:33;97589.19;;;13.90;56.67
4814;BME280;15375;48.540;9.268;2023-03-20T15:29:02;97576.53;;;13.80;56.87
4814;BME280;15375;48.540;9.268;2023-03-20T15:31:33;97577.16;;;13.72;57.53
4814;BME280;15375;48.540;9.268;2023-03-20T15:34:00;97574.00;;;13.57;58.63
4814;BME280;15375;48.540;9.268;2023-03-20T15:36:29;97588.97;;;13.69;58.39
4814;BME280;15375;48.540;9.268;2023-03-20T15:39:15;97583.91;;;13.67;58.23
4814;BME280;15375;48.540;9.268;2023-03-20T15:41:58;97587.63;;;13.61;59.11
4814;BME280;15375;48.540;9.268;2023-03-20T15:44:33;97583.34;;;13.60;58.66